Terminal Aerodrome Forecast
Issued by NWS

Home | Current Version | Previous Version | Text Only | Print | Product List | Glossary On
Versions: 1 2 3 4 5 6 7 8 9 10 11 12 13 14
852
FTUS46 KEKA 262320
TAFUKI
TAF
KUKI 262320Z 2700/2724 29007KT P6SM -SHRA OVC040
      TEMPO 2701/2705 31010G20KT 6SM -SHRA OVC025
     FM270500 VRB03KT P6SM VCSH SCT015 BKN060
     FM270700 00000KT P6SM SKC
     FM272100 31006KT P6SM BKN060=

USA.gov is the U.S. government's official web portal to all federal, state and local government web resources and services.